sensor_id;sensor_type;location;lat;lon;timestamp;P1;durP1;ratioP1;P2;durP2;ratioP2
11829;SDS011;5972;42.134;24.718;2022-11-20T00:00:03;47.40;;;28.42;;
11829;SDS011;5972;42.134;24.718;2022-11-20T00:02:30;42.10;;;30.17;;
11829;SDS011;5972;42.134;24.718;2022-11-20T00:04:56;41.08;;;26.77;;
11829;SDS011;5972;42.134;24.718;2022-11-20T00:07:23;35.95;;;26.45;;
11829;SDS011;5972;42.134;24.718;2022-11-20T00:09:50;34.65;;;25.35;;
11829;SDS011;5972;42.134;24.718;2022-11-20T00:12:17;39.80;;;25.95;;
11829;SDS011;5972;42.134;24.718;2022-11-20T00:14:45;32.97;;;24.15;;
11829;SDS011;5972;42.134;24.718;2022-11-20T00:17:12;37.13;;;25.50;;
11829;SDS011;5972;42.134;24.718;2022-11-20T00:19:38;35.10;;;25.27;;
11829;SDS011;5972;42.134;24.718;2022-11-20T00:22:05;34.78;;;25.42;;
11829;SDS011;5972;42.134;24.718;2022-11-20T00:24:32;40.35;;;26.10;;
11829;SDS011;5972;42.134;24.718;2022-11-20T00:26:58;39.83;;;27.70;;
11829;SDS011;5972;42.134;24.718;2022-11-20T00:29:25;40.53;;;26.95;;
11829;SDS011;5972;42.134;24.718;2022-11-20T00:31:53;38.72;;;26.30;;
11829;SDS011;5972;42.134;24.718;2022-11-20T00:34:20;37.15;;;26.05;;
11829;SDS011;5972;42.134;24.718;2022-11-20T00:36:47;41.20;;;25.73;;
11829;SDS011;5972;42.134;24.718;2022-11-20T00:39:14;40.15;;;25.40;;
11829;SDS011;5972;42.134;24.718;2022-11-20T00:41:40;39.53;;;25.65;;
11829;SDS011;5972;42.134;24.718;2022-11-20T00:44:07;45.30;;;27.40;;
11829;SDS011;5972;42.134;24.718;2022-11-20T00:46:34;36.88;;;26.05;;
11829;SDS011;5972;42.134;24.718;2022-11-20T00:49:02;35.20;;;26.48;;
11829;SDS011;5972;42.134;24.718;2022-11-20T00:51:29;38.70;;;25.70;;
11829;SDS011;5972;42.134;24.718;2022-11-20T00:53:56;38.35;;;25.10;;
11829;SDS011;5972;42.134;24.718;2022-11-20T00:56:25;33.08;;;24.63;;
11829;SDS011;5972;42.134;24.718;2022-11-20T00:58:51;34.20;;;25.60;;
11829;SDS011;5972;42.134;24.718;2022-11-20T01:01:19;36.33;;;24.83;;
11829;SDS011;5972;42.134;24.718;2022-11-20T01:03:49;38.45;;;26.40;;
11829;SDS011;5972;42.134;24.718;2022-11-20T01:06:19;40.42;;;25.23;;
11829;SDS011;5972;42.134;24.718;2022-11-20T01:08:47;36.80;;;26.58;;
11829;SDS011;5972;42.134;24.718;2022-11-20T01:11:16;33.80;;;25.67;;
11829;SDS011;5972;42.134;24.718;2022-11-20T01:13:44;34.60;;;23.52;;
11829;SDS011;5972;42.134;24.718;2022-11-20T01:16:13;36.42;;;24.83;;
11829;SDS011;5972;42.134;24.718;2022-11-20T01:18:41;43.50;;;30.08;;
11829;SDS011;5972;42.134;24.718;2022-11-20T01:21:11;31.27;;;23.67;;
11829;SDS011;5972;42.134;24.718;2022-11-20T01:23:40;29.92;;;22.42;;
11829;SDS011;5972;42.134;24.718;2022-11-20T01:26:09;30.15;;;22.95;;
11829;SDS011;5972;42.134;24.718;2022-11-20T01:28:38;37.67;;;26.40;;
11829;SDS011;5972;42.134;24.718;2022-11-20T01:31:15;31.63;;;23.00;;
11829;SDS011;5972;42.134;24.718;2022-11-20T01:33:44;32.50;;;22.83;;
11829;SDS011;5972;42.134;24.718;2022-11-20T01:36:12;30.85;;;23.17;;
11829;SDS011;5972;42.134;24.718;2022-11-20T01:38:41;33.33;;;22.67;;
11829;SDS011;5972;42.134;24.718;2022-11-20T01:41:09;31.17;;;24.15;;
11829;SDS011;5972;42.134;24.718;2022-11-20T01:43:57;40.53;;;26.88;;
11829;SDS011;5972;42.134;24.718;2022-11-20T01:46:23;32.95;;;22.88;;
11829;SDS011;5972;42.134;24.718;2022-11-20T01:48:51;35.20;;;25.15;;
11829;SDS011;5972;42.134;24.718;2022-11-20T01:51:23;33.30;;;24.73;;
11829;SDS011;5972;42.134;24.718;2022-11-20T01:53:57;38.83;;;26.88;;
11829;SDS011;5972;42.134;24.718;2022-11-20T01:56:27;37.03;;;24.88;;
11829;SDS011;5972;42.134;24.718;2022-11-20T01:58:56;42.75;;;25.33;;
11829;SDS011;5972;42.134;24.718;2022-11-20T02:01:25;32.33;;;24.75;;
11829;SDS011;5972;42.134;24.718;2022-11-20T02:03:52;37.05;;;24.33;;
11829;SDS011;5972;42.134;24.718;2022-11-20T02:06:21;32.45;;;24.13;;
11829;SDS011;5972;42.134;24.718;2022-11-20T02:08:52;31.20;;;22.25;;
11829;SDS011;5972;42.134;24.718;2022-11-20T02:11:21;32.03;;;22.67;;
11829;SDS011;5972;42.134;24.718;2022-11-20T02:13:48;37.33;;;24.92;;
11829;SDS011;5972;42.134;24.718;2022-11-20T02:16:16;31.65;;;23.55;;
11829;SDS011;5972;42.134;24.718;2022-11-20T02:18:46;31.02;;;22.08;;
11829;SDS011;5972;42.134;24.718;2022-11-20T02:21:16;29.90;;;22.55;;
11829;SDS011;5972;42.134;24.718;2022-11-20T02:26:43;32.65;;;21.55;;
11829;SDS011;5972;42.134;24.718;2022-11-20T02:29:15;36.63;;;21.42;;
11829;SDS011;5972;42.134;24.718;2022-11-20T02:31:45;30.85;;;22.20;;
11829;SDS011;5972;42.134;24.718;2022-11-20T02:34:13;29.10;;;22.00;;
11829;SDS011;5972;42.134;24.718;2022-11-20T02:36:40;31.10;;;20.80;;
11829;SDS011;5972;42.134;24.718;2022-11-20T02:39:09;25.95;;;18.27;;
11829;SDS011;5972;42.134;24.718;2022-11-20T02:41:39;29.92;;;19.75;;
11829;SDS011;5972;42.134;24.718;2022-11-20T02:44:05;26.17;;;18.30;;
11829;SDS011;5972;42.134;24.718;2022-11-20T02:46:32;28.23;;;18.50;;
11829;SDS011;5972;42.134;24.718;2022-11-20T02:49:00;28.52;;;19.10;;
11829;SDS011;5972;42.134;24.718;2022-11-20T02:51:28;24.95;;;18.23;;
11829;SDS011;5972;42.134;24.718;2022-11-20T02:53:54;28.08;;;19.27;;
11829;SDS011;5972;42.134;24.718;2022-11-20T02:56:21;25.52;;;18.92;;
11829;SDS011;5972;42.134;24.718;2022-11-20T02:58:50;24.27;;;16.67;;
11829;SDS011;5972;42.134;24.718;2022-11-20T03:01:16;19.88;;;14.57;;
11829;SDS011;5972;42.134;24.718;2022-11-20T03:03:43;22.27;;;16.63;;
11829;SDS011;5972;42.134;24.718;2022-11-20T03:06:10;21.10;;;14.82;;
11829;SDS011;5972;42.134;24.718;2022-11-20T03:08:37;21.45;;;15.13;;
11829;SDS011;5972;42.134;24.718;2022-11-20T03:11:04;21.73;;;15.70;;
11829;SDS011;5972;42.134;24.718;2022-11-20T03:13:33;23.48;;;16.25;;
11829;SDS011;5972;42.134;24.718;2022-11-20T03:16:11;21.10;;;14.82;;
11829;SDS011;5972;42.134;24.718;2022-11-20T03:18:39;24.00;;;16.13;;
11829;SDS011;5972;42.134;24.718;2022-11-20T03:21:07;23.48;;;15.65;;
11829;SDS011;5972;42.134;24.718;2022-11-20T03:23:35;19.10;;;13.48;;
11829;SDS011;5972;42.134;24.718;2022-11-20T03:26:09;19.02;;;12.85;;
11829;SDS011;5972;42.134;24.718;2022-11-20T03:28:37;24.85;;;13.93;;
11829;SDS011;5972;42.134;24.718;2022-11-20T03:31:05;22.33;;;14.02;;
11829;SDS011;5972;42.134;24.718;2022-11-20T03:33:34;23.45;;;13.90;;
11829;SDS011;5972;42.134;24.718;2022-11-20T03:36:02;23.48;;;14.63;;
11829;SDS011;5972;42.134;24.718;2022-11-20T03:38:29;20.30;;;15.13;;
11829;SDS011;5972;42.134;24.718;2022-11-20T03:41:00;22.02;;;14.07;;
11829;SDS011;5972;42.134;24.718;2022-11-20T03:43:27;21.45;;;14.07;;
11829;SDS011;5972;42.134;24.718;2022-11-20T03:45:54;22.33;;;13.07;;
11829;SDS011;5972;42.134;24.718;2022-11-20T03:48:21;20.05;;;11.82;;
11829;SDS011;5972;42.134;24.718;2022-11-20T03:50:49;20.40;;;12.27;;
11829;SDS011;5972;42.134;24.718;2022-11-20T03:53:16;19.48;;;12.02;;
11829;SDS011;5972;42.134;24.718;2022-11-20T03:55:43;21.80;;;12.73;;
11829;SDS011;5972;42.134;24.718;2022-11-20T03:58:10;20.52;;;12.63;;
11829;SDS011;5972;42.134;24.718;2022-11-20T04:00:38;17.25;;;11.50;;
11829;SDS011;5972;42.134;24.718;2022-11-20T04:03:05;14.93;;;10.82;;
11829;SDS011;5972;42.134;24.718;2022-11-20T04:05:32;20.13;;;10.50;;
11829;SDS011;5972;42.134;24.718;2022-11-20T04:08:01;18.23;;;10.77;;
11829;SDS011;5972;42.134;24.718;2022-11-20T04:10:27;19.25;;;9.98;;
11829;SDS011;5972;42.134;24.718;2022-11-20T04:12:54;17.52;;;10.27;;
11829;SDS011;5972;42.134;24.718;2022-11-20T04:15:21;17.95;;;10.52;;
11829;SDS011;5972;42.134;24.718;2022-11-20T04:17:48;16.45;;;8.38;;
11829;SDS011;5972;42.134;24.718;2022-11-20T04:20:15;17.48;;;8.60;;
11829;SDS011;5972;42.134;24.718;2022-11-20T04:22:42;17.80;;;8.80;;
11829;SDS011;5972;42.134;24.718;2022-11-20T04:25:10;14.57;;;9.32;;
11829;SDS011;5972;42.134;24.718;2022-11-20T04:27:36;13.13;;;7.20;;
11829;SDS011;5972;42.134;24.718;2022-11-20T04:30:03;11.43;;;7.10;;
11829;SDS011;5972;42.134;24.718;2022-11-20T04:32:31;19.10;;;7.18;;
11829;SDS011;5972;42.134;24.718;2022-11-20T04:34:58;16.13;;;9.02;;
11829;SDS011;5972;42.134;24.718;2022-11-20T04:37:24;13.27;;;9.18;;
11829;SDS011;5972;42.134;24.718;2022-11-20T04:39:51;17.52;;;9.98;;
11829;SDS011;5972;42.134;24.718;2022-11-20T04:42:19;15.05;;;9.32;;
11829;SDS011;5972;42.134;24.718;2022-11-20T04:44:55;13.13;;;7.60;;
11829;SDS011;5972;42.134;24.718;2022-11-20T04:47:23;14.85;;;5.47;;
11829;SDS011;5972;42.134;24.718;2022-11-20T04:49:50;16.65;;;5.57;;
11829;SDS011;5972;42.134;24.718;2022-11-20T04:52:16;15.13;;;4.72;;
11829;SDS011;5972;42.134;24.718;2022-11-20T04:54:43;15.35;;;6.82;;
11829;SDS011;5972;42.134;24.718;2022-11-20T04:57:12;15.90;;;7.20;;
11829;SDS011;5972;42.134;24.718;2022-11-20T04:59:41;12.68;;;6.20;;
11829;SDS011;5972;42.134;24.718;2022-11-20T05:02:07;11.20;;;5.38;;
11829;SDS011;5972;42.134;24.718;2022-11-20T05:04:34;11.65;;;5.53;;
11829;SDS011;5972;42.134;24.718;2022-11-20T05:07:01;12.35;;;6.47;;
11829;SDS011;5972;42.134;24.718;2022-11-20T05:09:28;10.48;;;6.00;;
11829;SDS011;5972;42.134;24.718;2022-11-20T05:11:55;10.23;;;6.13;;
11829;SDS011;5972;42.134;24.718;2022-11-20T05:14:21;13.27;;;6.57;;
11829;SDS011;5972;42.134;24.718;2022-11-20T05:16:49;13.18;;;7.93;;
11829;SDS011;5972;42.134;24.718;2022-11-20T05:19:16;15.63;;;6.50;;
11829;SDS011;5972;42.134;24.718;2022-11-20T05:21:43;11.73;;;6.35;;
11829;SDS011;5972;42.134;24.718;2022-11-20T05:24:10;12.45;;;4.82;;
11829;SDS011;5972;42.134;24.718;2022-11-20T05:26:37;12.80;;;7.88;;
11829;SDS011;5972;42.134;24.718;2022-11-20T05:29:03;14.30;;;8.43;;
11829;SDS011;5972;42.134;24.718;2022-11-20T05:31:30;14.60;;;7.22;;
11829;SDS011;5972;42.134;24.718;2022-11-20T05:33:58;14.00;;;8.13;;
11829;SDS011;5972;42.134;24.718;2022-11-20T05:36:25;14.35;;;9.90;;
11829;SDS011;5972;42.134;24.718;2022-11-20T05:38:52;14.10;;;8.95;;
11829;SDS011;5972;42.134;24.718;2022-11-20T05:41:19;11.43;;;7.70;;
11829;SDS011;5972;42.134;24.718;2022-11-20T05:43:47;15.80;;;8.38;;
11829;SDS011;5972;42.134;24.718;2022-11-20T05:46:16;20.33;;;9.98;;
11829;SDS011;5972;42.134;24.718;2022-11-20T05:48:44;14.48;;;8.93;;
11829;SDS011;5972;42.134;24.718;2022-11-20T05:51:14;16.90;;;9.25;;
11829;SDS011;5972;42.134;24.718;2022-11-20T05:53:43;15.75;;;8.98;;
11829;SDS011;5972;42.134;24.718;2022-11-20T05:56:10;17.88;;;9.32;;
11829;SDS011;5972;42.134;24.718;2022-11-20T05:58:38;12.10;;;8.10;;
11829;SDS011;5972;42.134;24.718;2022-11-20T06:01:06;14.15;;;9.07;;
11829;SDS011;5972;42.134;24.718;2022-11-20T06:03:34;20.83;;;9.68;;
11829;SDS011;5972;42.134;24.718;2022-11-20T06:06:01;20.67;;;8.57;;
11829;SDS011;5972;42.134;24.718;2022-11-20T06:08:30;13.52;;;8.60;;
11829;SDS011;5972;42.134;24.718;2022-11-20T06:10:57;10.35;;;6.97;;
11829;SDS011;5972;42.134;24.718;2022-11-20T06:13:24;13.52;;;7.63;;
11829;SDS011;5972;42.134;24.718;2022-11-20T06:15:51;14.45;;;8.23;;
11829;SDS011;5972;42.134;24.718;2022-11-20T06:18:19;16.23;;;6.43;;
11829;SDS011;5972;42.134;24.718;2022-11-20T06:20:46;11.32;;;6.30;;
11829;SDS011;5972;42.134;24.718;2022-11-20T06:23:13;15.45;;;6.55;;
11829;SDS011;5972;42.134;24.718;2022-11-20T06:25:41;15.48;;;6.30;;
11829;SDS011;5972;42.134;24.718;2022-11-20T06:28:09;10.98;;;6.40;;
11829;SDS011;5972;42.134;24.718;2022-11-20T06:30:36;11.18;;;6.07;;
11829;SDS011;5972;42.134;24.718;2022-11-20T06:33:03;15.15;;;6.05;;
11829;SDS011;5972;42.134;24.718;2022-11-20T06:35:29;9.13;;;5.65;;
11829;SDS011;5972;42.134;24.718;2022-11-20T06:37:56;11.68;;;5.88;;
11829;SDS011;5972;42.134;24.718;2022-11-20T06:40:23;12.00;;;7.13;;
11829;SDS011;5972;42.134;24.718;2022-11-20T06:42:52;10.70;;;6.10;;
11829;SDS011;5972;42.134;24.718;2022-11-20T06:45:20;13.73;;;6.03;;
11829;SDS011;5972;42.134;24.718;2022-11-20T06:47:47;11.35;;;5.78;;
11829;SDS011;5972;42.134;24.718;2022-11-20T06:50:14;12.13;;;5.53;;
11829;SDS011;5972;42.134;24.718;2022-11-20T06:52:40;13.25;;;5.88;;
11829;SDS011;5972;42.134;24.718;2022-11-20T06:55:07;10.38;;;5.82;;
11829;SDS011;5972;42.134;24.718;2022-11-20T06:57:34;11.30;;;5.68;;
11829;SDS011;5972;42.134;24.718;2022-11-20T07:00:03;10.02;;;5.13;;
11829;SDS011;5972;42.134;24.718;2022-11-20T07:02:30;12.00;;;5.07;;
11829;SDS011;5972;42.134;24.718;2022-11-20T07:04:57;15.43;;;5.63;;
11829;SDS011;5972;42.134;24.718;2022-11-20T07:07:24;8.02;;;4.78;;
11829;SDS011;5972;42.134;24.718;2022-11-20T07:09:50;11.18;;;4.50;;
11829;SDS011;5972;42.134;24.718;2022-11-20T07:12:17;11.18;;;5.50;;
11829;SDS011;5972;42.134;24.718;2022-11-20T07:14:44;12.65;;;5.97;;
11829;SDS011;5972;42.134;24.718;2022-11-20T07:17:12;8.70;;;5.32;;
11829;SDS011;5972;42.134;24.718;2022-11-20T07:19:39;10.18;;;5.57;;
11829;SDS011;5972;42.134;24.718;2022-11-20T07:22:06;12.80;;;5.80;;
11829;SDS011;5972;42.134;24.718;2022-11-20T07:24:33;16.02;;;5.85;;
11829;SDS011;5972;42.134;24.718;2022-11-20T07:27:00;12.48;;;5.22;;
11829;SDS011;5972;42.134;24.718;2022-11-20T07:29:26;11.18;;;5.53;;
11829;SDS011;5972;42.134;24.718;2022-11-20T07:31:53;12.73;;;5.78;;
11829;SDS011;5972;42.134;24.718;2022-11-20T07:34:22;13.07;;;5.72;;
11829;SDS011;5972;42.134;24.718;2022-11-20T07:36:49;11.68;;;7.40;;
11829;SDS011;5972;42.134;24.718;2022-11-20T07:39:15;16.38;;;6.88;;
11829;SDS011;5972;42.134;24.718;2022-11-20T07:41:42;17.38;;;8.70;;
11829;SDS011;5972;42.134;24.718;2022-11-20T07:44:09;14.95;;;11.10;;
11829;SDS011;5972;42.134;24.718;2022-11-20T07:46:36;20.85;;;10.38;;
11829;SDS011;5972;42.134;24.718;2022-11-20T07:49:03;10.65;;;6.72;;
11829;SDS011;5972;42.134;24.718;2022-11-20T07:51:31;14.15;;;7.53;;
11829;SDS011;5972;42.134;24.718;2022-11-20T07:53:58;17.23;;;9.60;;
11829;SDS011;5972;42.134;24.718;2022-11-20T07:56:25;12.25;;;7.70;;
11829;SDS011;5972;42.134;24.718;2022-11-20T07:58:51;18.23;;;8.88;;
11829;SDS011;5972;42.134;24.718;2022-11-20T08:01:18;16.70;;;8.27;;
11829;SDS011;5972;42.134;24.718;2022-11-20T08:03:45;13.43;;;7.20;;
11829;SDS011;5972;42.134;24.718;2022-11-20T08:06:12;16.25;;;8.00;;
11829;SDS011;5972;42.134;24.718;2022-11-20T08:08:41;14.60;;;7.63;;
11829;SDS011;5972;42.134;24.718;2022-11-20T08:11:08;14.02;;;6.47;;
11829;SDS011;5972;42.134;24.718;2022-11-20T08:13:48;16.98;;;8.32;;
11829;SDS011;5972;42.134;24.718;2022-11-20T08:16:32;15.93;;;8.15;;
11829;SDS011;5972;42.134;24.718;2022-11-20T08:18:59;15.77;;;8.65;;
11829;SDS011;5972;42.134;24.718;2022-11-20T08:21:26;14.18;;;8.00;;
11829;SDS011;5972;42.134;24.718;2022-11-20T08:23:55;13.02;;;7.40;;
11829;SDS011;5972;42.134;24.718;2022-11-20T08:26:23;17.17;;;7.28;;
11829;SDS011;5972;42.134;24.718;2022-11-20T08:28:52;15.65;;;7.30;;
11829;SDS011;5972;42.134;24.718;2022-11-20T08:31:20;12.18;;;6.68;;
11829;SDS011;5972;42.134;24.718;2022-11-20T08:33:47;10.75;;;7.15;;
11829;SDS011;5972;42.134;24.718;2022-11-20T08:36:14;17.90;;;9.00;;
11829;SDS011;5972;42.134;24.718;2022-11-20T08:38:40;22.25;;;10.27;;
11829;SDS011;5972;42.134;24.718;2022-11-20T08:41:09;23.67;;;8.77;;
11829;SDS011;5972;42.134;24.718;2022-11-20T08:43:53;15.23;;;7.35;;
11829;SDS011;5972;42.134;24.718;2022-11-20T08:46:22;17.02;;;7.28;;
11829;SDS011;5972;42.134;24.718;2022-11-20T08:48:49;16.20;;;7.03;;
11829;SDS011;5972;42.134;24.718;2022-11-20T08:51:16;18.48;;;8.10;;
11829;SDS011;5972;42.134;24.718;2022-11-20T08:53:44;16.67;;;8.50;;
11829;SDS011;5972;42.134;24.718;2022-11-20T08:56:12;18.02;;;7.32;;
11829;SDS011;5972;42.134;24.718;2022-11-20T08:58:39;19.02;;;7.53;;
11829;SDS011;5972;42.134;24.718;2022-11-20T09:01:06;11.45;;;6.30;;
11829;SDS011;5972;42.134;24.718;2022-11-20T09:03:33;14.75;;;6.88;;
11829;SDS011;5972;42.134;24.718;2022-11-20T09:06:00;15.88;;;6.57;;
11829;SDS011;5972;42.134;24.718;2022-11-20T09:08:27;9.60;;;5.88;;
11829;SDS011;5972;42.134;24.718;2022-11-20T09:10:55;8.50;;;5.75;;
11829;SDS011;5972;42.134;24.718;2022-11-20T09:13:24;12.90;;;6.20;;
11829;SDS011;5972;42.134;24.718;2022-11-20T09:15:53;11.32;;;6.50;;
11829;SDS011;5972;42.134;24.718;2022-11-20T09:18:20;11.98;;;6.90;;
11829;SDS011;5972;42.134;24.718;2022-11-20T09:20:47;14.23;;;7.13;;
11829;SDS011;5972;42.134;24.718;2022-11-20T09:23:14;13.57;;;7.53;;
11829;SDS011;5972;42.134;24.718;2022-11-20T09:25:41;10.13;;;7.07;;
11829;SDS011;5972;42.134;24.718;2022-11-20T09:28:09;17.23;;;7.20;;
11829;SDS011;5972;42.134;24.718;2022-11-20T09:30:37;12.50;;;6.70;;
11829;SDS011;5972;42.134;24.718;2022-11-20T09:33:04;14.32;;;6.25;;
11829;SDS011;5972;42.134;24.718;2022-11-20T09:35:32;8.75;;;5.57;;
11829;SDS011;5972;42.134;24.718;2022-11-20T09:38:03;9.73;;;4.68;;
11829;SDS011;5972;42.134;24.718;2022-11-20T09:40:31;9.45;;;4.95;;
11829;SDS011;5972;42.134;24.718;2022-11-20T09:42:59;8.48;;;4.97;;
11829;SDS011;5972;42.134;24.718;2022-11-20T09:45:44;16.77;;;7.80;;
11829;SDS011;5972;42.134;24.718;2022-11-20T09:48:25;9.27;;;5.05;;
11829;SDS011;5972;42.134;24.718;2022-11-20T09:51:04;9.75;;;4.13;;
11829;SDS011;5972;42.134;24.718;2022-11-20T09:53:39;7.50;;;4.35;;
11829;SDS011;5972;42.134;24.718;2022-11-20T09:56:15;12.85;;;4.43;;
11829;SDS011;5972;42.134;24.718;2022-11-20T09:58:44;8.40;;;4.70;;
11829;SDS011;5972;42.134;24.718;2022-11-20T10:01:16;8.65;;;3.85;;
11829;SDS011;5972;42.134;24.718;2022-11-20T10:03:47;6.90;;;3.95;;
11829;SDS011;5972;42.134;24.718;2022-11-20T10:06:21;12.35;;;4.55;;
11829;SDS011;5972;42.134;24.718;2022-11-20T10:08:56;11.55;;;4.25;;
11829;SDS011;5972;42.134;24.718;2022-11-20T10:11:32;12.65;;;4.78;;
11829;SDS011;5972;42.134;24.718;2022-11-20T10:14:13;7.50;;;4.43;;
11829;SDS011;5972;42.134;24.718;2022-11-20T10:16:53;8.43;;;4.30;;
11829;SDS011;5972;42.134;24.718;2022-11-20T10:19:31;10.57;;;4.43;;
11829;SDS011;5972;42.134;24.718;2022-11-20T10:22:16;11.50;;;4.93;;
11829;SDS011;5972;42.134;24.718;2022-11-20T10:24:58;11.85;;;4.50;;
11829;SDS011;5972;42.134;24.718;2022-11-20T10:27:39;9.50;;;4.20;;
11829;SDS011;5972;42.134;24.718;2022-11-20T10:30:15;8.48;;;4.43;;
11829;SDS011;5972;42.134;24.718;2022-11-20T10:32:47;10.63;;;4.30;;
11829;SDS011;5972;42.134;24.718;2022-11-20T10:35:20;7.82;;;4.00;;
11829;SDS011;5972;42.134;24.718;2022-11-20T10:37:51;15.32;;;5.45;;
11829;SDS011;5972;42.134;24.718;2022-11-20T10:40:25;17.67;;;5.00;;
11829;SDS011;5972;42.134;24.718;2022-11-20T10:42:59;10.57;;;4.45;;
11829;SDS011;5972;42.134;24.718;2022-11-20T10:45:42;9.20;;;4.22;;
11829;SDS011;5972;42.134;24.718;2022-11-20T10:48:14;8.05;;;4.07;;
11829;SDS011;5972;42.134;24.718;2022-11-20T10:50:57;7.45;;;3.97;;
11829;SDS011;5972;42.134;24.718;2022-11-20T10:53:33;9.43;;;4.40;;
11829;SDS011;5972;42.134;24.718;2022-11-20T10:56:11;17.75;;;4.60;;
11829;SDS011;5972;42.134;24.718;2022-11-20T10:58:45;14.90;;;5.18;;
11829;SDS011;5972;42.134;24.718;2022-11-20T11:01:21;10.70;;;4.45;;
11829;SDS011;5972;42.134;24.718;2022-11-20T11:03:49;13.18;;;5.60;;
11829;SDS011;5972;42.134;24.718;2022-11-20T11:06:20;18.65;;;6.20;;
11829;SDS011;5972;42.134;24.718;2022-11-20T11:08:50;18.00;;;7.35;;
11829;SDS011;5972;42.134;24.718;2022-11-20T11:11:21;12.32;;;5.90;;
11829;SDS011;5972;42.134;24.718;2022-11-20T11:13:50;18.90;;;9.25;;
11829;SDS011;5972;42.134;24.718;2022-11-20T11:16:20;16.75;;;6.30;;
11829;SDS011;5972;42.134;24.718;2022-11-20T11:18:50;17.67;;;6.75;;
11829;SDS011;5972;42.134;24.718;2022-11-20T11:21:21;14.05;;;5.97;;
11829;SDS011;5972;42.134;24.718;2022-11-20T11:23:57;9.82;;;5.60;;
11829;SDS011;5972;42.134;24.718;2022-11-20T11:26:25;15.80;;;5.90;;
11829;SDS011;5972;42.134;24.718;2022-11-20T11:28:53;13.27;;;5.45;;
11829;SDS011;5972;42.134;24.718;2022-11-20T11:31:24;16.55;;;5.32;;
11829;SDS011;5972;42.134;24.718;2022-11-20T11:34:02;13.02;;;6.47;;
11829;SDS011;5972;42.134;24.718;2022-11-20T11:36:30;14.40;;;6.50;;
11829;SDS011;5972;42.134;24.718;2022-11-20T11:38:59;15.98;;;7.20;;
11829;SDS011;5972;42.134;24.718;2022-11-20T11:41:28;18.77;;;7.75;;
11829;SDS011;5972;42.134;24.718;2022-11-20T11:44:00;15.35;;;5.93;;
11829;SDS011;5972;42.134;24.718;2022-11-20T11:46:49;17.40;;;6.18;;
11829;SDS011;5972;42.134;24.718;2022-11-20T11:49:21;19.17;;;6.30;;
11829;SDS011;5972;42.134;24.718;2022-11-20T11:52:02;18.65;;;5.68;;
11829;SDS011;5972;42.134;24.718;2022-11-20T11:54:36;15.35;;;6.47;;
11829;SDS011;5972;42.134;24.718;2022-11-20T11:57:10;10.98;;;5.47;;
11829;SDS011;5972;42.134;24.718;2022-11-20T11:59:44;18.67;;;6.55;;
11829;SDS011;5972;42.134;24.718;2022-11-20T12:02:27;20.10;;;7.10;;
11829;SDS011;5972;42.134;24.718;2022-11-20T12:05:02;15.30;;;6.70;;
11829;SDS011;5972;42.134;24.718;2022-11-20T12:07:39;19.83;;;6.40;;
11829;SDS011;5972;42.134;24.718;2022-11-20T12:10:12;14.85;;;5.28;;
11829;SDS011;5972;42.134;24.718;2022-11-20T12:12:43;15.88;;;6.63;;
11829;SDS011;5972;42.134;24.718;2022-11-20T12:15:16;14.55;;;5.97;;
11829;SDS011;5972;42.134;24.718;2022-11-20T12:17:52;15.55;;;6.30;;
11829;SDS011;5972;42.134;24.718;2022-11-20T12:20:20;21.70;;;6.85;;
11829;SDS011;5972;42.134;24.718;2022-11-20T12:22:52;16.80;;;6.57;;
11829;SDS011;5972;42.134;24.718;2022-11-20T12:25:22;13.38;;;5.53;;
11829;SDS011;5972;42.134;24.718;2022-11-20T12:30:46;10.30;;;4.78;;
11829;SDS011;5972;42.134;24.718;2022-11-20T12:33:26;14.70;;;5.25;;
11829;SDS011;5972;42.134;24.718;2022-11-20T12:36:08;18.17;;;6.00;;
11829;SDS011;5972;42.134;24.718;2022-11-20T12:38:50;19.13;;;5.35;;
11829;SDS011;5972;42.134;24.718;2022-11-20T12:41:45;17.65;;;5.35;;
11829;SDS011;5972;42.134;24.718;2022-11-20T12:44:45;13.50;;;4.80;;
11829;SDS011;5972;42.134;24.718;2022-11-20T12:47:37;13.27;;;3.92;;
11829;SDS011;5972;42.134;24.718;2022-11-20T12:50:19;12.25;;;4.90;;
11829;SDS011;5972;42.134;24.718;2022-11-20T12:52:57;14.30;;;6.18;;
11829;SDS011;5972;42.134;24.718;2022-11-20T12:55:32;16.45;;;5.95;;
11829;SDS011;5972;42.134;24.718;2022-11-20T12:58:09;17.50;;;6.32;;
11829;SDS011;5972;42.134;24.718;2022-11-20T13:00:47;19.15;;;6.90;;
11829;SDS011;5972;42.134;24.718;2022-11-20T13:03:32;16.67;;;6.72;;
11829;SDS011;5972;42.134;24.718;2022-11-20T13:06:09;16.95;;;6.38;;
11829;SDS011;5972;42.134;24.718;2022-11-20T13:08:41;22.90;;;7.68;;
11829;SDS011;5972;42.134;24.718;2022-11-20T13:11:13;19.73;;;7.63;;
11829;SDS011;5972;42.134;24.718;2022-11-20T13:13:53;19.17;;;5.68;;
11829;SDS011;5972;42.134;24.718;2022-11-20T13:16:32;14.52;;;5.20;;
11829;SDS011;5972;42.134;24.718;2022-11-20T13:19:02;18.30;;;5.00;;
11829;SDS011;5972;42.134;24.718;2022-11-20T13:21:37;12.82;;;4.03;;
11829;SDS011;5972;42.134;24.718;2022-11-20T13:24:18;19.02;;;5.68;;
11829;SDS011;5972;42.134;24.718;2022-11-20T13:26:48;19.42;;;5.10;;
11829;SDS011;5972;42.134;24.718;2022-11-20T13:29:25;14.00;;;4.63;;
11829;SDS011;5972;42.134;24.718;2022-11-20T13:32:01;22.77;;;4.30;;
11829;SDS011;5972;42.134;24.718;2022-11-20T13:34:30;26.02;;;4.47;;
11829;SDS011;5972;42.134;24.718;2022-11-20T13:36:57;11.40;;;3.40;;
11829;SDS011;5972;42.134;24.718;2022-11-20T13:39:28;11.88;;;3.72;;
11829;SDS011;5972;42.134;24.718;2022-11-20T13:41:57;20.38;;;3.80;;
11829;SDS011;5972;42.134;24.718;2022-11-20T13:44:25;15.23;;;3.30;;
11829;SDS011;5972;42.134;24.718;2022-11-20T13:46:55;16.73;;;3.20;;
11829;SDS011;5972;42.134;24.718;2022-11-20T13:49:23;16.95;;;3.30;;
11829;SDS011;5972;42.134;24.718;2022-11-20T13:51:55;11.50;;;3.40;;
11829;SDS011;5972;42.134;24.718;2022-11-20T13:54:44;18.33;;;3.10;;
11829;SDS011;5972;42.134;24.718;2022-11-20T13:57:35;13.35;;;3.03;;
11829;SDS011;5972;42.134;24.718;2022-11-20T14:00:15;9.30;;;2.45;;
11829;SDS011;5972;42.134;24.718;2022-11-20T14:02:43;20.65;;;2.30;;
11829;SDS011;5972;42.134;24.718;2022-11-20T14:05:17;17.75;;;1.80;;
11829;SDS011;5972;42.134;24.718;2022-11-20T14:07:47;14.75;;;1.67;;
11829;SDS011;5972;42.134;24.718;2022-11-20T14:10:21;7.30;;;1.52;;
11829;SDS011;5972;42.134;24.718;2022-11-20T14:12:50;4.95;;;1.10;;
11829;SDS011;5972;42.134;24.718;2022-11-20T14:15:27;2.20;;;0.80;;
11829;SDS011;5972;42.134;24.718;2022-11-20T14:17:56;4.68;;;1.00;;
11829;SDS011;5972;42.134;24.718;2022-11-20T14:20:24;1.95;;;1.10;;
11829;SDS011;5972;42.134;24.718;2022-11-20T14:22:53;1.77;;;1.27;;
11829;SDS011;5972;42.134;24.718;2022-11-20T14:25:23;3.60;;;1.25;;
11829;SDS011;5972;42.134;24.718;2022-11-20T14:27:52;6.57;;;1.42;;
11829;SDS011;5972;42.134;24.718;2022-11-20T14:30:22;3.10;;;1.30;;
11829;SDS011;5972;42.134;24.718;2022-11-20T14:32:50;2.70;;;1.27;;
11829;SDS011;5972;42.134;24.718;2022-11-20T14:35:21;4.78;;;1.15;;
11829;SDS011;5972;42.134;24.718;2022-11-20T14:37:51;5.30;;;1.30;;
11829;SDS011;5972;42.134;24.718;2022-11-20T14:40:24;4.55;;;1.23;;
11829;SDS011;5972;42.134;24.718;2022-11-20T14:42:53;5.88;;;1.40;;
11829;SDS011;5972;42.134;24.718;2022-11-20T14:45:20;3.83;;;1.30;;
11829;SDS011;5972;42.134;24.718;2022-11-20T14:47:48;7.50;;;2.05;;
11829;SDS011;5972;42.134;24.718;2022-11-20T14:50:17;3.15;;;1.33;;
11829;SDS011;5972;42.134;24.718;2022-11-20T14:52:50;2.35;;;1.90;;
11829;SDS011;5972;42.134;24.718;2022-11-20T14:55:29;8.52;;;2.92;;